Time,TemperatureF,DewpointF,PressureIn,WindDirection,WindDirectionDegrees,WindSpeedMPH,WindSpeedGustMPH,Humidity,HourlyPrecipIn,Conditions,Clouds,dailyrainin,SoftwareType,DateUTC
2013-08-26 00:00:00,71.7,61.8,30.15,SW,215,3.0,3.0,71,0.00,,---,0.00,VWS V14.01,2013-08-26 04:00:00,
2013-08-26 00:01:00,71.7,61.8,30.15,SW,215,3.0,3.0,71,0.00,,---,0.00,VWS V14.01,2013-08-26 04:01:00,
2013-08-26 00:02:00,71.7,61.8,30.15,South,170,3.0,3.0,71,0.00,,---,0.00,VWS V14.01,2013-08-26 04:02:00,
2013-08-26 00:03:00,71.7,61.8,30.15,SW,215,1.7,3.0,71,0.00,,---,0.00,VWS V14.01,2013-08-26 04:03:00,
2013-08-26 00:04:00,71.7,61.8,30.15,SW,215,1.7,3.0,71,0.00,,---,0.00,VWS V14.01,2013-08-26 04:04:00,
2013-08-26 00:09:00,71.5,61.7,30.15,SW,215,1.3,2.0,71,0.00,,---,0.00,VWS V14.01,2013-08-26 04:09:00,
2013-08-26 00:14:00,71.5,61.7,30.15,SW,215,2.0,3.0,71,0.00,,---,0.00,VWS V14.01,2013-08-26 04:14:00,
2013-08-26 00:19:00,71.7,61.8,30.15,West,260,3.0,4.6,71,0.00,,---,0.00,VWS V14.01,2013-08-26 04:19:00,
2013-08-26 00:24:00,71.5,61.7,30.15,SW,215,4.0,4.0,71,0.00,,---,0.00,VWS V14.01,2013-08-26 04:24:00,
2013-08-26 00:29:00,71.4,61.5,30.15,SE,125,0.0,1.3,71,0.00,,---,0.00,VWS V14.01,2013-08-26 04:29:00,
2013-08-26 00:34:00,71.2,61.3,30.15,West,260,3.0,3.0,71,0.00,,---,0.00,VWS V14.01,2013-08-26 04:34:00,
2013-08-26 00:39:00,71.0,61.5,30.15,NW,305,2.0,2.0,72,0.00,,---,0.00,VWS V14.01,2013-08-26 04:39:00,
2013-08-26 00:44:00,71.0,61.1,30.15,SE,125,2.3,2.3,71,0.00,,---,0.00,VWS V14.01,2013-08-26 04:44:00,
2013-08-26 00:49:00,70.8,61.4,30.15,SW,215,0.0,2.0,72,0.00,,---,0.00,VWS V14.01,2013-08-26 04:49:00,
2013-08-26 00:54:00,70.8,61.4,30.15,SE,125,2.0,2.0,72,0.00,,---,0.00,VWS V14.01,2013-08-26 04:54:00,
2013-08-26 00:59:00,70.6,61.6,30.15,SW,215,2.0,3.0,73,0.00,,---,0.00,VWS V14.01,2013-08-26 04:59:00,
2013-08-26 01:04:00,70.6,61.6,30.15,South,170,3.6,3.6,73,0.00,,---,0.00,VWS V14.01,2013-08-26 05:04:00,
2013-08-26 01:09:00,70.6,61.6,30.15,NW,305,1.3,1.3,73,0.00,,---,0.00,VWS V14.01,2013-08-26 05:09:00,
2013-08-26 01:14:00,70.6,61.6,30.15,SW,215,2.3,2.3,73,0.00,,---,0.00,VWS V14.01,2013-08-26 05:14:00,
2013-08-26 01:19:00,70.5,61.4,30.15,SE,125,2.0,2.3,73,0.00,,---,0.00,VWS V14.01,2013-08-26 05:19:00,
2013-08-26 01:24:00,70.5,61.0,30.15,SW,215,0.0,1.3,72,0.00,,---,0.00,VWS V14.01,2013-08-26 05:24:00,
2013-08-26 01:29:00,70.5,61.4,30.15,South,170,1.7,1.7,73,0.00,,---,0.00,VWS V14.01,2013-08-26 05:29:00,
2013-08-26 01:34:00,70.3,60.8,30.15,SW,215,1.7,1.7,72,0.00,,---,0.00,VWS V14.01,2013-08-26 05:34:00,
2013-08-26 01:39:00,70.3,60.8,30.15,SW,215,2.0,3.6,72,0.00,,---,0.00,VWS V14.01,2013-08-26 05:39:00,
2013-08-26 01:44:00,70.1,60.7,30.12,SW,215,0.0,0.0,72,0.00,,---,0.00,VWS V14.01,2013-08-26 05:44:00,
2013-08-26 01:49:00,70.1,60.7,30.12,SE,125,0.0,1.3,72,0.00,,---,0.00,VWS V14.01,2013-08-26 05:49:00,
2013-08-26 01:55:00,70.1,61.0,30.12,West,260,3.3,3.3,73,0.00,,---,0.00,VWS V14.01,2013-08-26 05:55:00,
2013-08-26 02:00:00,69.9,60.9,30.12,SW,215,3.0,3.0,73,0.00,,---,0.00,VWS V14.01,2013-08-26 06:00:00,
2013-08-26 02:05:00,69.7,60.3,30.12,SW,215,2.0,2.0,72,0.00,,---,0.00,VWS V14.01,2013-08-26 06:05:00,
2013-08-26 02:10:00,69.7,60.3,30.12,SW,215,2.0,2.0,72,0.00,,---,0.00,VWS V14.01,2013-08-26 06:10:00,
2013-08-26 02:15:00,69.6,60.2,30.12,West,260,2.0,2.0,72,0.00,,---,0.00,VWS V14.01,2013-08-26 06:15:00,
2013-08-26 02:20:00,69.6,60.2,30.12,SW,215,0.0,2.0,72,0.00,,---,0.00,VWS V14.01,2013-08-26 06:20:00,
2013-08-26 02:25:00,69.4,60.4,30.12,South,170,0.0,2.3,73,0.00,,---,0.00,VWS V14.01,2013-08-26 06:25:00,
2013-08-26 02:30:00,69.2,60.2,30.12,SW,215,1.7,1.7,73,0.00,,---,0.00,VWS V14.01,2013-08-26 06:30:00,
2013-08-26 02:35:00,69.2,60.2,30.12,SW,215,0.0,0.0,73,0.00,,---,0.00,VWS V14.01,2013-08-26 06:35:00,
2013-08-26 02:40:00,69.2,60.2,30.12,NW,305,1.7,1.7,73,0.00,,---,0.00,VWS V14.01,2013-08-26 06:40:00,
2013-08-26 02:45:00,69.2,60.2,30.12,South,170,0.0,0.0,73,0.00,,---,0.00,VWS V14.01,2013-08-26 06:45:00,
2013-08-26 02:50:00,69.2,60.2,30.12,SW,215,1.7,1.7,73,0.00,,---,0.00,VWS V14.01,2013-08-26 06:50:00,
2013-08-26 02:55:00,69.4,60.0,30.09,NE,35,3.0,3.0,72,0.00,,---,0.00,VWS V14.01,2013-08-26 06:55:00,
2013-08-26 03:00:00,69.4,60.0,30.09,West,260,4.6,4.6,72,0.00,,---,0.00,VWS V14.01,2013-08-26 07:00:00,
2013-08-26 03:05:00,69.6,60.2,30.09,SW,215,3.0,3.0,72,0.00,,---,0.00,VWS V14.01,2013-08-26 07:05:00,
2013-08-26 03:10:00,69.7,59.9,30.09,NW,305,4.0,4.0,71,0.00,,---,0.00,VWS V14.01,2013-08-26 07:10:00,
2013-08-26 03:15:00,69.7,59.9,30.09,SW,215,2.3,2.3,71,0.00,,---,0.00,VWS V14.01,2013-08-26 07:15:00,
2013-08-26 03:20:00,69.7,59.9,30.09,NW,305,3.0,3.0,71,0.00,,---,0.00,VWS V14.01,2013-08-26 07:20:00,
2013-08-26 03:25:00,69.6,59.8,30.09,SW,215,2.0,3.6,71,0.00,,---,0.00,VWS V14.01,2013-08-26 07:25:00,
2013-08-26 03:30:00,69.7,59.9,30.09,NW,305,0.0,1.7,71,0.00,,---,0.00,VWS V14.01,2013-08-26 07:30:00,
2013-08-26 03:35:00,69.6,59.8,30.09,SW,215,3.0,3.0,71,0.00,,---,0.00,VWS V14.01,2013-08-26 07:35:00,
2013-08-26 03:40:00,69.6,59.8,30.12,WSW,238,1.7,1.7,71,0.00,,---,0.00,VWS V14.01,2013-08-26 07:40:00,
2013-08-26 03:45:00,69.9,59.7,30.12,WSW,238,3.0,4.3,70,0.00,,---,0.00,VWS V14.01,2013-08-26 07:45:00,
2013-08-26 03:50:00,69.7,59.9,30.12,SW,215,3.6,3.6,71,0.00,,---,0.00,VWS V14.01,2013-08-26 07:50:00,
2013-08-26 03:55:00,69.6,59.8,30.12,NW,305,2.0,2.0,71,0.00,,---,0.00,VWS V14.01,2013-08-26 07:55:00,
2013-08-26 04:00:00,69.7,59.5,30.12,WNW,282,2.3,2.3,70,0.00,,---,0.00,VWS V14.01,2013-08-26 08:00:00,
2013-08-26 04:05:00,69.9,59.7,30.12,West,260,0.0,3.0,70,0.00,,---,0.00,VWS V14.01,2013-08-26 08:05:00,
2013-08-26 04:10:00,69.9,59.7,30.12,SW,215,3.3,3.3,70,0.00,,---,0.00,VWS V14.01,2013-08-26 08:10:00,
2013-08-26 04:15:00,69.7,59.5,30.12,West,260,4.6,4.6,70,0.00,,---,0.00,VWS V14.01,2013-08-26 08:15:00,
2013-08-26 04:20:00,69.9,59.7,30.12,SE,125,2.0,2.0,70,0.00,,---,0.00,VWS V14.01,2013-08-26 08:20:00,
2013-08-26 04:25:00,69.9,59.7,30.12,NW,305,2.0,3.6,70,0.00,,---,0.00,VWS V14.01,2013-08-26 08:25:00,
2013-08-26 04:30:00,69.6,59.4,30.12,SW,215,2.0,2.0,70,0.00,,---,0.00,VWS V14.01,2013-08-26 08:30:00,
2013-08-26 04:35:00,69.6,59.4,30.12,West,260,0.0,2.0,70,0.00,,---,0.00,VWS V14.01,2013-08-26 08:35:00,
2013-08-26 04:40:00,69.4,59.2,30.12,SW,215,2.3,2.3,70,0.00,,---,0.00,VWS V14.01,2013-08-26 08:40:00,
2013-08-26 04:45:00,69.4,59.2,30.12,SW,215,0.0,3.3,70,0.00,,---,0.00,VWS V14.01,2013-08-26 08:45:00,
2013-08-26 04:50:00,69.2,59.0,30.12,SW,215,1.7,1.7,70,0.00,,---,0.00,VWS V14.01,2013-08-26 08:50:00,
2013-08-26 04:55:00,69.2,59.0,30.12,SW,215,2.3,2.3,70,0.00,,---,0.00,VWS V14.01,2013-08-26 08:55:00,
2013-08-26 05:00:00,68.8,59.1,30.12,SW,215,2.0,2.3,71,0.00,,---,0.00,VWS V14.01,2013-08-26 09:00:00,
2013-08-26 05:05:00,68.7,58.9,30.12,SW,215,1.7,4.0,71,0.00,,---,0.00,VWS V14.01,2013-08-26 09:05:00,
2013-08-26 05:10:00,68.8,59.1,30.12,SW,215,3.0,3.0,71,0.00,,---,0.00,VWS V14.01,2013-08-26 09:10:00,
2013-08-26 05:15:00,68.8,59.5,30.12,SW,215,1.7,2.3,72,0.00,,---,0.00,VWS V14.01,2013-08-26 09:15:00,
2013-08-26 05:20:00,68.8,59.5,30.12,SW,215,1.3,1.3,72,0.00,,---,0.00,VWS V14.01,2013-08-26 09:20:00,
2013-08-26 05:26:00,68.8,59.1,30.09,SW,215,1.7,1.7,71,0.00,,---,0.00,VWS V14.01,2013-08-26 09:26:00,
2013-08-26 05:31:00,68.8,59.5,30.09,SW,215,3.3,3.3,72,0.00,,---,0.00,VWS V14.01,2013-08-26 09:31:00,
2013-08-26 05:36:00,69.0,59.6,30.09,West,260,2.0,3.0,72,0.00,,---,0.00,VWS V14.01,2013-08-26 09:36:00,
2013-08-26 05:41:00,68.7,59.3,30.12,NW,305,2.0,2.0,72,0.00,,---,0.00,VWS V14.01,2013-08-26 09:41:00,
2013-08-26 05:46:00,68.7,59.3,30.12,NW,305,0.0,2.0,72,0.00,,---,0.00,VWS V14.01,2013-08-26 09:46:00,
2013-08-26 05:51:00,68.7,59.3,30.12,SW,215,3.0,3.0,72,0.00,,---,0.00,VWS V14.01,2013-08-26 09:51:00,
2013-08-26 05:56:00,68.7,59.3,30.12,SW,215,2.0,2.0,72,0.00,,---,0.00,VWS V14.01,2013-08-26 09:56:00,
2013-08-26 06:01:00,68.7,59.3,30.12,WSW,238,1.3,1.3,72,0.00,,---,0.00,VWS V14.01,2013-08-26 10:01:00,
2013-08-26 06:06:00,68.5,59.1,30.12,SW,215,2.0,2.0,72,0.00,,---,0.00,VWS V14.01,2013-08-26 10:06:00,
2013-08-26 06:11:00,68.3,58.9,30.12,West,260,2.0,2.0,72,0.00,,---,0.00,VWS V14.01,2013-08-26 10:11:00,
2013-08-26 06:16:00,68.5,59.5,30.12,SW,215,1.3,1.3,73,0.00,,---,0.00,VWS V14.01,2013-08-26 10:16:00,
2013-08-26 06:21:00,68.3,58.9,30.12,SW,215,2.0,2.3,72,0.00,,---,0.00,VWS V14.01,2013-08-26 10:21:00,
2013-08-26 06:26:00,68.3,59.3,30.12,SW,215,5.6,5.6,73,0.00,,---,0.00,VWS V14.01,2013-08-26 10:26:00,
2013-08-26 06:31:00,68.1,59.2,30.12,SW,215,2.3,4.3,73,0.00,,---,0.00,VWS V14.01,2013-08-26 10:31:00,
2013-08-26 06:36:00,67.8,59.2,30.12,South,170,2.3,2.3,74,0.00,,---,0.00,VWS V14.01,2013-08-26 10:36:00,
2013-08-26 06:41:00,67.9,59.0,30.12,SW,215,2.3,3.6,73,0.00,,---,0.00,VWS V14.01,2013-08-26 10:41:00,
2013-08-26 06:46:00,67.9,59.0,30.12,South,170,3.6,5.0,73,0.00,,---,0.00,VWS V14.01,2013-08-26 10:46:00,
2013-08-26 06:51:00,67.9,59.0,30.12,SW,215,3.6,3.6,73,0.00,,---,0.00,VWS V14.01,2013-08-26 10:51:00,
2013-08-26 06:56:00,67.9,59.4,30.12,SW,215,1.3,1.3,74,0.00,,---,0.00,VWS V14.01,2013-08-26 10:56:00,
2013-08-26 07:01:00,67.8,59.2,30.12,SW,215,0.0,0.0,74,0.00,,---,0.00,VWS V14.01,2013-08-26 11:01:00,
2013-08-26 07:06:00,67.9,59.4,30.12,West,260,1.7,1.7,74,0.00,,---,0.00,VWS V14.01,2013-08-26 11:06:00,
2013-08-26 07:11:00,67.9,59.4,30.12,SW,215,1.3,2.3,74,0.00,,---,0.00,VWS V14.01,2013-08-26 11:11:00,
2013-08-26 07:16:00,67.9,59.4,30.12,SW,215,3.6,3.6,74,0.00,,---,0.00,VWS V14.01,2013-08-26 11:16:00,
2013-08-26 07:21:00,67.9,59.4,30.12,SW,215,1.7,3.0,74,0.00,,---,0.00,VWS V14.01,2013-08-26 11:21:00,
2013-08-26 07:26:00,67.9,59.4,30.12,SE,125,2.0,2.0,74,0.00,,---,0.00,VWS V14.01,2013-08-26 11:26:00,
2013-08-26 07:31:00,67.8,59.6,30.12,West,260,0.0,2.3,75,0.00,,---,0.00,VWS V14.01,2013-08-26 11:31:00,
2013-08-26 07:36:00,67.6,59.4,30.12,NW,305,0.0,1.7,75,0.00,,---,0.00,VWS V14.01,2013-08-26 11:36:00,
2013-08-26 07:41:00,67.6,59.4,30.12,SW,215,0.0,3.0,75,0.00,,---,0.00,VWS V14.01,2013-08-26 11:41:00,
2013-08-26 07:46:00,67.6,59.4,30.12,South,170,0.0,0.0,75,0.00,,---,0.00,VWS V14.01,2013-08-26 11:46:00,
2013-08-26 07:51:00,67.6,59.4,30.12,NW,305,0.0,0.0,75,0.00,,---,0.00,VWS V14.01,2013-08-26 11:51:00,
2013-08-26 07:56:00,67.6,59.8,30.12,SW,215,0.0,2.3,76,0.00,,---,0.00,VWS V14.01,2013-08-26 11:56:00,
2013-08-26 08:01:00,67.8,59.9,30.12,SW,215,3.6,6.3,76,0.00,,---,0.00,VWS V14.01,2013-08-26 12:01:00,
2013-08-26 08:06:00,67.9,60.1,30.12,West,260,0.0,0.0,76,0.00,,---,0.00,VWS V14.01,2013-08-26 12:06:00,
2013-08-26 08:11:00,67.9,60.5,30.12,SW,215,0.0,0.0,77,0.00,,---,0.00,VWS V14.01,2013-08-26 12:11:00,
2013-08-26 08:16:00,68.5,61.0,30.12,SW,215,0.0,0.0,77,0.00,,---,0.00,VWS V14.01,2013-08-26 12:16:00,
2013-08-26 08:21:00,68.7,60.8,30.12,SW,215,0.0,2.0,76,0.00,,---,0.00,VWS V14.01,2013-08-26 12:21:00,
2013-08-26 08:26:00,68.7,61.2,30.12,SW,215,4.0,4.0,77,0.00,,---,0.00,VWS V14.01,2013-08-26 12:26:00,
2013-08-26 08:31:00,69.2,61.3,30.12,North,350,3.6,3.6,76,0.00,,---,0.00,VWS V14.01,2013-08-26 12:31:00,
2013-08-26 08:36:00,69.6,61.3,30.12,West,260,0.0,2.3,75,0.00,,---,0.00,VWS V14.01,2013-08-26 12:36:00,
2013-08-26 08:41:00,69.9,61.3,30.12,NE,35,2.0,2.3,74,0.00,,---,0.00,VWS V14.01,2013-08-26 12:41:00,
2013-08-26 08:46:00,69.9,61.6,30.12,West,260,0.0,0.0,75,0.00,,---,0.00,VWS V14.01,2013-08-26 12:46:00,
2013-08-26 08:51:00,70.1,61.8,30.12,West,260,2.0,2.0,75,0.00,,---,0.00,VWS V14.01,2013-08-26 12:51:00,
2013-08-26 08:56:00,70.5,62.2,30.12,ESE,102,2.3,2.3,75,0.00,,---,0.00,VWS V14.01,2013-08-26 12:56:00,
2013-08-26 09:01:00,70.8,62.1,30.12,West,260,2.3,2.3,74,0.00,,---,0.00,VWS V14.01,2013-08-26 13:01:00,
2013-08-26 09:06:00,71.4,61.9,30.12,SW,215,5.3,5.3,72,0.00,,---,0.00,VWS V14.01,2013-08-26 13:06:00,
2013-08-26 09:11:00,71.5,62.4,30.12,NW,305,2.0,4.0,73,0.00,,---,0.00,VWS V14.01,2013-08-26 13:11:00,
2013-08-26 09:16:00,71.9,62.4,30.12,West,260,4.6,4.6,72,0.00,,---,0.00,VWS V14.01,2013-08-26 13:16:00,
2013-08-26 09:21:00,71.9,62.0,30.12,SE,125,3.3,4.3,71,0.00,,---,0.00,VWS V14.01,2013-08-26 13:21:00,
2013-08-26 09:26:00,72.3,61.9,30.12,SW,215,2.3,4.0,70,0.00,,---,0.00,VWS V14.01,2013-08-26 13:26:00,
2013-08-26 09:31:00,72.4,62.1,30.12,SW,215,1.7,2.3,70,0.00,,---,0.00,VWS V14.01,2013-08-26 13:31:00,
2013-08-26 09:37:00,72.6,62.3,30.12,SW,215,3.0,4.0,70,0.00,,---,0.00,VWS V14.01,2013-08-26 13:37:00,
2013-08-26 09:42:00,72.4,62.1,30.12,West,260,3.0,3.6,70,0.00,,---,0.00,VWS V14.01,2013-08-26 13:42:00,
2013-08-26 09:47:00,72.6,62.7,30.12,SW,215,1.7,3.6,71,0.00,,---,0.00,VWS V14.01,2013-08-26 13:47:00,
2013-08-26 09:52:00,72.6,62.7,30.12,SW,215,2.0,2.0,71,0.00,,---,0.00,VWS V14.01,2013-08-26 13:52:00,
2013-08-26 09:57:00,72.8,62.0,30.12,SW,215,5.6,5.6,69,0.00,,---,0.00,VWS V14.01,2013-08-26 13:57:00,
2013-08-26 10:02:00,73.0,62.6,30.12,West,260,3.6,4.3,70,0.00,,---,0.00,VWS V14.01,2013-08-26 14:02:00,
2013-08-26 10:07:00,73.0,62.6,30.12,West,260,2.3,2.3,70,0.00,,---,0.00,VWS V14.01,2013-08-26 14:07:00,
2013-08-26 10:12:00,73.3,63.0,30.12,NW,305,4.3,4.3,70,0.00,,---,0.00,VWS V14.01,2013-08-26 14:12:00,
2013-08-26 10:17:00,73.3,63.0,30.12,West,260,3.3,4.3,70,0.00,,---,0.00,VWS V14.01,2013-08-26 14:17:00,
2013-08-26 10:22:00,73.3,63.0,30.12,NW,305,3.6,3.6,70,0.00,,---,0.00,VWS V14.01,2013-08-26 14:22:00,
2013-08-26 10:27:00,73.3,63.0,30.12,West,260,3.6,3.6,70,0.00,,---,0.00,VWS V14.01,2013-08-26 14:27:00,
2013-08-26 10:32:00,73.7,63.3,30.12,West,260,3.6,3.6,70,0.00,,---,0.00,VWS V14.01,2013-08-26 14:32:00,
2013-08-26 10:37:00,73.7,63.7,30.12,NW,305,4.0,4.0,71,0.00,,---,0.00,VWS V14.01,2013-08-26 14:37:00,
2013-08-26 10:42:00,74.1,64.1,30.12,NW,305,3.6,3.6,71,0.00,,---,0.00,VWS V14.01,2013-08-26 14:42:00,
2013-08-26 10:47:00,74.1,64.1,30.12,West,260,3.6,3.6,71,0.00,,---,0.00,VWS V14.01,2013-08-26 14:47:00,
2013-08-26 10:52:00,75.0,64.1,30.12,NW,305,3.0,3.0,69,0.00,,---,0.00,VWS V14.01,2013-08-26 14:52:00,
2013-08-26 10:57:00,75.3,64.5,30.12,West,260,3.3,5.6,69,0.00,,---,0.00,VWS V14.01,2013-08-26 14:57:00,
2013-08-26 11:02:00,75.3,64.9,30.12,West,260,2.3,2.3,70,0.00,,---,0.00,VWS V14.01,2013-08-26 15:02:00,
2013-08-26 11:07:00,75.5,65.0,30.12,West,260,5.0,5.0,70,0.00,,---,0.00,VWS V14.01,2013-08-26 15:07:00,
2013-08-26 11:12:00,75.9,65.0,30.12,West,260,5.3,5.3,69,0.00,,---,0.00,VWS V14.01,2013-08-26 15:12:00,
2013-08-26 11:17:00,75.9,65.0,30.12,West,260,2.3,4.3,69,0.00,,---,0.00,VWS V14.01,2013-08-26 15:17:00,
2013-08-26 11:22:00,75.7,65.2,30.12,SW,215,1.3,1.3,70,0.00,,---,0.00,VWS V14.01,2013-08-26 15:22:00,
2013-08-26 11:27:00,75.9,65.0,30.12,SW,215,2.3,4.6,69,0.00,,---,0.00,VWS V14.01,2013-08-26 15:27:00,
2013-08-26 11:32:00,76.0,65.6,30.12,WSW,238,2.0,2.0,70,0.00,,---,0.00,VWS V14.01,2013-08-26 15:32:00,
2013-08-26 11:37:00,76.4,65.9,30.12,SW,215,4.0,5.0,70,0.00,,---,0.00,VWS V14.01,2013-08-26 15:37:00,
2013-08-26 11:42:00,76.9,66.0,30.12,SW,215,4.3,4.3,69,0.00,,---,0.00,VWS V14.01,2013-08-26 15:42:00,
2013-08-26 11:47:00,77.5,66.5,30.12,SW,215,2.0,4.3,69,0.00,,---,0.00,VWS V14.01,2013-08-26 15:47:00,
2013-08-26 11:52:00,77.7,67.1,30.12,West,260,5.3,5.3,70,0.00,,---,0.00,VWS V14.01,2013-08-26 15:52:00,
2013-08-26 11:57:00,77.8,67.3,30.09,SW,215,2.0,4.0,70,0.00,,---,0.00,VWS V14.01,2013-08-26 15:57:00,
2013-08-26 12:02:00,78.4,67.8,30.09,NW,305,5.0,5.6,70,0.00,,---,0.00,VWS V14.01,2013-08-26 16:02:00,
2013-08-26 12:07:00,78.7,67.7,30.09,NW,305,1.3,3.0,69,0.00,,---,0.00,VWS V14.01,2013-08-26 16:07:00,
2013-08-26 12:12:00,79.1,68.1,30.09,NW,305,2.0,3.6,69,0.00,,---,0.00,VWS V14.01,2013-08-26 16:12:00,
2013-08-26 12:17:00,79.3,68.2,30.09,East,80,2.3,3.3,69,0.00,,---,0.00,VWS V14.01,2013-08-26 16:17:00,
2013-08-26 12:22:00,78.9,67.5,30.09,NE,35,2.0,3.6,68,0.00,,---,0.00,VWS V14.01,2013-08-26 16:22:00,
2013-08-26 12:27:00,78.9,67.5,30.09,SW,215,2.0,3.0,68,0.00,,---,0.00,VWS V14.01,2013-08-26 16:27:00,
2013-08-26 12:32:00,78.7,67.7,30.09,North,350,3.3,3.3,69,0.00,,---,0.00,VWS V14.01,2013-08-26 16:32:00,
2013-08-26 12:37:00,78.9,67.9,30.09,WNW,282,2.0,4.0,69,0.00,,---,0.00,VWS V14.01,2013-08-26 16:37:00,
2013-08-26 12:42:00,78.9,67.9,30.09,NW,305,3.6,3.6,69,0.00,,---,0.00,VWS V14.01,2013-08-26 16:42:00,
2013-08-26 12:47:00,79.1,68.1,30.09,NW,305,0.0,3.0,69,0.00,,---,0.00,VWS V14.01,2013-08-26 16:47:00,
2013-08-26 12:52:00,79.1,68.5,30.09,West,260,5.6,5.6,70,0.00,,---,0.00,VWS V14.01,2013-08-26 16:52:00,
2013-08-26 12:57:00,79.1,68.5,30.09,West,260,3.6,3.6,70,0.00,,---,0.00,VWS V14.01,2013-08-26 16:57:00,
2013-08-26 13:02:00,79.1,68.5,30.09,West,260,1.7,3.6,70,0.00,,---,0.00,VWS V14.01,2013-08-26 17:02:00,
2013-08-26 13:07:00,79.5,68.8,30.09,West,260,3.6,5.0,70,0.00,,---,0.00,VWS V14.01,2013-08-26 17:07:00,
2013-08-26 13:12:00,80.0,69.3,30.09,West,260,4.0,4.0,70,0.00,,---,0.00,VWS V14.01,2013-08-26 17:12:00,
2013-08-26 13:17:00,80.2,69.1,30.09,NW,305,4.3,4.3,69,0.00,,---,0.00,VWS V14.01,2013-08-26 17:17:00,
2013-08-26 13:22:00,80.7,69.6,30.09,SW,215,2.3,5.3,69,0.00,,---,0.00,VWS V14.01,2013-08-26 17:22:00,
2013-08-26 13:27:00,81.3,70.1,30.09,West,260,5.0,8.9,69,0.00,,---,0.00,VWS V14.01,2013-08-26 17:27:00,
2013-08-26 13:32:00,81.8,69.3,30.09,NW,305,7.0,7.0,66,0.00,,---,0.00,VWS V14.01,2013-08-26 17:32:00,
2013-08-26 13:38:00,81.8,69.3,30.09,West,260,4.6,4.6,66,0.00,,---,0.00,VWS V14.01,2013-08-26 17:38:00,
2013-08-26 13:43:00,81.4,69.4,30.09,West,260,2.3,4.6,67,0.00,,---,0.00,VWS V14.01,2013-08-26 17:43:00,
2013-08-26 13:48:00,81.3,69.3,30.09,NW,305,3.6,4.3,67,0.00,,---,0.00,VWS V14.01,2013-08-26 17:48:00,
2013-08-26 13:53:00,80.9,68.9,30.09,West,260,7.3,7.3,67,0.00,,---,0.00,VWS V14.01,2013-08-26 17:53:00,
2013-08-26 13:58:00,80.5,68.6,30.09,NW,305,2.0,2.3,67,0.00,,---,0.00,VWS V14.01,2013-08-26 17:58:00,
2013-08-26 14:03:00,80.5,69.0,30.09,West,260,4.6,5.0,68,0.00,,---,0.00,VWS V14.01,2013-08-26 18:03:00,
2013-08-26 14:08:00,80.2,67.8,30.09,West,260,5.3,6.0,66,0.00,,---,0.00,VWS V14.01,2013-08-26 18:08:00,
2013-08-26 14:13:00,80.0,68.5,30.06,West,260,3.0,4.3,68,0.00,,---,0.00,VWS V14.01,2013-08-26 18:13:00,
2013-08-26 14:18:00,80.0,68.5,30.06,NW,305,3.3,3.3,68,0.00,,---,0.00,VWS V14.01,2013-08-26 18:18:00,
2013-08-26 14:23:00,80.0,68.9,30.06,West,260,1.7,1.7,69,0.00,,---,0.00,VWS V14.01,2013-08-26 18:23:00,
2013-08-26 14:28:00,79.8,68.8,30.06,West,260,3.6,3.6,69,0.00,,---,0.00,VWS V14.01,2013-08-26 18:28:00,
2013-08-26 14:33:00,79.8,68.8,30.06,West,260,4.3,4.6,69,0.00,,---,0.00,VWS V14.01,2013-08-26 18:33:00,
2013-08-26 14:38:00,79.8,68.3,30.06,West,260,2.3,2.3,68,0.00,,---,0.00,VWS V14.01,2013-08-26 18:38:00,
2013-08-26 14:43:00,80.2,68.7,30.06,NW,305,8.3,8.3,68,0.00,,---,0.00,VWS V14.01,2013-08-26 18:43:00,
2013-08-26 14:48:00,80.2,68.7,30.06,WNW,282,2.3,4.0,68,0.00,,---,0.00,VWS V14.01,2013-08-26 18:48:00,
2013-08-26 14:53:00,80.4,69.3,30.06,NW,305,2.0,3.6,69,0.00,,---,0.00,VWS V14.01,2013-08-26 18:53:00,
2013-08-26 14:58:00,80.2,68.7,30.03,North,350,2.0,5.0,68,0.00,,---,0.00,VWS V14.01,2013-08-26 18:58:00,
2013-08-26 15:03:00,80.4,68.8,30.03,SE,125,3.6,4.3,68,0.00,,---,0.00,VWS V14.01,2013-08-26 19:03:00,
2013-08-26 15:08:00,80.4,68.8,30.03,SW,215,7.3,7.3,68,0.00,,---,0.00,VWS V14.01,2013-08-26 19:08:00,
2013-08-26 15:13:00,80.4,68.8,30.03,West,260,2.3,6.0,68,0.00,,---,0.00,VWS V14.01,2013-08-26 19:13:00,
2013-08-26 15:18:00,80.4,69.3,30.03,SW,215,3.3,3.3,69,0.00,,---,0.00,VWS V14.01,2013-08-26 19:18:00,
2013-08-26 15:23:00,80.4,69.3,30.03,SW,215,3.3,3.3,69,0.00,,---,0.00,VWS V14.01,2013-08-26 19:23:00,
2013-08-26 15:28:00,80.4,69.3,30.00,West,260,2.0,2.0,69,0.00,,---,0.00,VWS V14.01,2013-08-26 19:28:00,
2013-08-26 15:33:00,80.5,69.4,30.00,West,260,2.0,2.0,69,0.00,,---,0.00,VWS V14.01,2013-08-26 19:33:00,
2013-08-26 15:38:00,80.4,69.3,30.00,NW,305,1.3,2.0,69,0.00,,---,0.00,VWS V14.01,2013-08-26 19:38:00,
2013-08-26 15:43:00,80.5,69.4,30.00,West,260,4.6,4.6,69,0.00,,---,0.00,VWS V14.01,2013-08-26 19:43:00,
2013-08-26 15:48:00,80.9,70.2,30.00,SW,215,5.3,5.3,70,0.00,,---,0.00,VWS V14.01,2013-08-26 19:48:00,
2013-08-26 15:53:00,81.1,70.0,30.00,North,350,4.3,4.3,69,0.00,,---,0.00,VWS V14.01,2013-08-26 19:53:00,
2013-08-26 15:58:00,81.1,69.5,30.00,West,260,4.6,4.6,68,0.00,,---,0.00,VWS V14.01,2013-08-26 19:58:00,
2013-08-26 16:03:00,81.1,70.0,30.00,SW,215,3.6,4.0,69,0.00,,---,0.00,VWS V14.01,2013-08-26 20:03:00,
2013-08-26 16:08:00,81.3,70.1,30.00,SW,215,3.6,3.6,69,0.00,,---,0.00,VWS V14.01,2013-08-26 20:08:00,
2013-08-26 16:13:00,81.8,70.6,30.00,West,260,3.6,4.0,69,0.00,,---,0.00,VWS V14.01,2013-08-26 20:13:00,
2013-08-26 16:18:00,82.3,71.2,30.00,West,260,5.0,6.0,69,0.00,,---,0.00,VWS V14.01,2013-08-26 20:18:00,
2013-08-26 16:23:00,82.5,70.9,30.00,West,260,3.0,3.6,68,0.00,,---,0.00,VWS V14.01,2013-08-26 20:23:00,
2013-08-26 16:28:00,82.7,71.1,30.03,West,260,3.3,5.6,68,0.00,,---,0.00,VWS V14.01,2013-08-26 20:28:00,
2013-08-26 16:33:00,82.9,71.2,30.03,West,260,3.0,4.0,68,0.00,,---,0.00,VWS V14.01,2013-08-26 20:33:00,
2013-08-26 16:38:00,82.9,70.8,30.03,West,260,5.0,5.0,67,0.00,,---,0.00,VWS V14.01,2013-08-26 20:38:00,
2013-08-26 16:43:00,82.7,70.2,30.00,NW,305,4.0,4.3,66,0.00,,---,0.00,VWS V14.01,2013-08-26 20:43:00,
2013-08-26 16:48:00,83.2,71.2,30.00,North,350,5.0,5.0,67,0.00,,---,0.00,VWS V14.01,2013-08-26 20:48:00,
2013-08-26 16:53:00,83.1,71.0,30.00,West,260,1.7,1.7,67,0.00,,---,0.00,VWS V14.01,2013-08-26 20:53:00,
2013-08-26 16:58:00,82.7,70.6,30.00,NE,35,3.3,3.3,67,0.00,,---,0.00,VWS V14.01,2013-08-26 20:58:00,
2013-08-26 17:03:00,82.5,70.5,30.00,NW,305,3.6,3.6,67,0.00,,---,0.00,VWS V14.01,2013-08-26 21:03:00,
2013-08-26 17:08:00,82.3,70.7,30.00,NW,305,2.3,3.0,68,0.00,,---,0.00,VWS V14.01,2013-08-26 21:08:00,
2013-08-26 17:13:00,82.2,70.1,30.03,NW,305,2.3,3.0,67,0.00,,---,0.00,VWS V14.01,2013-08-26 21:13:00,
2013-08-26 17:18:00,82.2,70.6,30.03,West,260,2.0,4.0,68,0.00,,---,0.00,VWS V14.01,2013-08-26 21:18:00,
2013-08-26 17:23:00,82.0,70.4,30.03,West,260,4.0,4.6,68,0.00,,---,0.00,VWS V14.01,2013-08-26 21:23:00,
2013-08-26 17:28:00,81.8,70.2,30.03,West,260,4.0,4.0,68,0.00,,---,0.00,VWS V14.01,2013-08-26 21:28:00,
2013-08-26 17:33:00,81.6,70.5,30.03,NW,305,2.3,3.6,69,0.00,,---,0.00,VWS V14.01,2013-08-26 21:33:00,
2013-08-26 17:38:00,81.6,70.5,30.03,West,260,4.3,5.0,69,0.00,,---,0.00,VWS V14.01,2013-08-26 21:38:00,
2013-08-26 17:44:00,81.8,70.6,30.00,WNW,282,3.6,3.6,69,0.00,,---,0.00,VWS V14.01,2013-08-26 21:44:00,
2013-08-26 17:49:00,81.8,70.2,30.00,West,260,3.0,3.0,68,0.00,,---,0.00,VWS V14.01,2013-08-26 21:49:00,
2013-08-26 17:54:00,81.8,70.6,30.00,NW,305,3.0,3.0,69,0.00,,---,0.00,VWS V14.01,2013-08-26 21:54:00,
2013-08-26 17:59:00,81.6,70.5,30.03,West,260,3.0,7.3,69,0.00,,---,0.00,VWS V14.01,2013-08-26 21:59:00,
2013-08-26 18:04:00,81.4,70.3,30.03,West,260,0.0,0.0,69,0.00,,---,0.00,VWS V14.01,2013-08-26 22:04:00,
2013-08-26 18:09:00,81.4,70.3,30.03,West,260,2.0,2.3,69,0.00,,---,0.00,VWS V14.01,2013-08-26 22:09:00,
2013-08-26 18:14:00,81.4,70.7,30.03,WNW,282,2.3,2.3,70,0.00,,---,0.00,VWS V14.01,2013-08-26 22:14:00,
2013-08-26 18:19:00,81.3,70.6,30.03,WNW,282,3.0,3.3,70,0.00,,---,0.00,VWS V14.01,2013-08-26 22:19:00,
2013-08-26 18:24:00,81.1,70.4,30.03,West,260,1.7,1.7,70,0.00,,---,0.00,VWS V14.01,2013-08-26 22:24:00,
2013-08-26 18:29:00,81.3,71.0,30.03,West,260,2.0,3.0,71,0.00,,---,0.00,VWS V14.01,2013-08-26 22:29:00,
2013-08-26 18:34:00,81.3,71.0,30.03,West,260,2.0,2.0,71,0.00,,---,0.00,VWS V14.01,2013-08-26 22:34:00,
2013-08-26 18:39:00,81.3,71.0,30.03,WNW,282,1.3,3.3,71,0.00,,---,0.00,VWS V14.01,2013-08-26 22:39:00,
2013-08-26 18:44:00,81.1,70.8,30.00,WNW,282,2.0,2.0,71,0.00,,---,0.00,VWS V14.01,2013-08-26 22:44:00,
2013-08-26 18:49:00,80.9,70.6,30.00,West,260,0.0,3.6,71,0.00,,---,0.00,VWS V14.01,2013-08-26 22:49:00,
2013-08-26 18:54:00,80.9,71.0,30.00,SW,215,3.6,3.6,72,0.00,,---,0.00,VWS V14.01,2013-08-26 22:54:00,
2013-08-26 18:59:00,81.3,71.0,30.00,West,260,3.6,3.6,71,0.00,,---,0.00,VWS V14.01,2013-08-26 22:59:00,
2013-08-26 19:04:00,81.3,71.4,30.00,SW,215,2.3,2.3,72,0.00,,---,0.00,VWS V14.01,2013-08-26 23:04:00,
2013-08-26 19:09:00,81.1,71.2,30.00,West,260,0.0,3.3,72,0.00,,---,0.00,VWS V14.01,2013-08-26 23:09:00,
2013-08-26 19:14:00,81.1,70.8,30.00,WNW,282,3.6,3.6,71,0.00,,---,0.00,VWS V14.01,2013-08-26 23:14:00,
2013-08-26 19:19:00,80.7,70.9,30.00,West,260,3.0,3.0,72,0.00,,---,0.00,VWS V14.01,2013-08-26 23:19:00,
2013-08-26 19:24:00,80.5,70.7,30.00,West,260,3.3,3.3,72,0.00,,---,0.00,VWS V14.01,2013-08-26 23:24:00,
2013-08-26 19:29:00,80.5,71.1,30.00,SW,215,0.0,3.0,73,0.00,,---,0.00,VWS V14.01,2013-08-26 23:29:00,
2013-08-26 19:34:00,80.5,71.1,30.00,West,260,0.0,4.3,73,0.00,,---,0.00,VWS V14.01,2013-08-26 23:34:00,
2013-08-26 19:39:00,80.7,71.3,30.00,West,260,1.7,1.7,73,0.00,,---,0.00,VWS V14.01,2013-08-26 23:39:00,
2013-08-26 19:44:00,80.2,70.8,30.00,NW,305,2.0,3.0,73,0.00,,---,0.00,VWS V14.01,2013-08-26 23:44:00,
2013-08-26 19:49:00,80.2,70.8,30.00,West,260,1.7,4.0,73,0.00,,---,0.00,VWS V14.01,2013-08-26 23:49:00,
2013-08-26 19:54:00,80.0,71.0,30.00,West,260,2.3,2.3,74,0.00,,---,0.00,VWS V14.01,2013-08-26 23:54:00,
2013-08-26 19:59:00,80.2,71.2,30.00,West,260,2.3,2.3,74,0.00,,---,0.00,VWS V14.01,2013-08-26 23:59:00,
2013-08-26 20:04:00,79.8,71.2,30.00,NW,305,1.3,1.3,75,0.00,,---,0.00,VWS V14.01,2013-08-27 00:04:00,
2013-08-26 20:09:00,79.8,71.2,30.00,SW,215,4.0,4.0,75,0.00,,---,0.00,VWS V14.01,2013-08-27 00:09:00,
2013-08-26 20:14:00,79.3,70.7,30.00,SE,125,2.0,2.0,75,0.00,,---,0.00,VWS V14.01,2013-08-27 00:14:00,
2013-08-26 20:19:00,79.3,70.7,30.00,SW,215,0.0,3.0,75,0.00,,---,0.00,VWS V14.01,2013-08-27 00:19:00,
2013-08-26 20:24:00,79.1,70.9,30.00,SE,125,0.0,0.0,76,0.00,,---,0.00,VWS V14.01,2013-08-27 00:24:00,
2013-08-26 20:29:00,78.7,70.5,30.00,SE,125,0.0,1.7,76,0.00,,---,0.00,VWS V14.01,2013-08-27 00:29:00,
2013-08-26 20:34:00,78.7,70.5,30.00,West,260,0.0,3.0,76,0.00,,---,0.00,VWS V14.01,2013-08-27 00:34:00,
2013-08-26 20:39:00,78.4,70.6,30.00,SW,215,1.3,1.3,77,0.00,,---,0.00,VWS V14.01,2013-08-27 00:39:00,
2013-08-26 20:44:00,78.4,70.6,30.00,NW,305,2.0,2.0,77,0.00,,---,0.00,VWS V14.01,2013-08-27 00:44:00,
2013-08-26 20:49:00,78.4,70.6,30.00,SE,125,1.7,4.0,77,0.00,,---,0.00,VWS V14.01,2013-08-27 00:49:00,
2013-08-26 20:54:00,78.2,70.8,30.00,SW,215,0.0,0.0,78,0.00,,---,0.00,VWS V14.01,2013-08-27 00:54:00,
2013-08-26 20:59:00,78.0,70.6,30.00,West,260,4.3,4.3,78,0.00,,---,0.00,VWS V14.01,2013-08-27 00:59:00,
2013-08-26 21:04:00,77.8,70.8,30.00,SW,215,2.0,2.0,79,0.00,,---,0.00,VWS V14.01,2013-08-27 01:04:00,
2013-08-26 21:09:00,77.8,70.8,30.00,SW,215,3.3,3.3,79,0.00,,---,0.00,VWS V14.01,2013-08-27 01:09:00,
2013-08-26 21:14:00,77.7,70.6,30.00,SW,215,0.0,1.7,79,0.00,,---,0.00,VWS V14.01,2013-08-27 01:14:00,
2013-08-26 21:19:00,77.7,70.6,30.00,SW,215,3.3,4.3,79,0.00,,---,0.00,VWS V14.01,2013-08-27 01:19:00,
2013-08-26 21:24:00,77.7,70.6,30.00,SW,215,3.6,3.6,79,0.00,,---,0.00,VWS V14.01,2013-08-27 01:24:00,
2013-08-26 21:29:00,77.5,70.5,30.00,SE,125,1.7,2.0,79,0.00,,---,0.00,VWS V14.01,2013-08-27 01:29:00,
2013-08-26 21:34:00,77.7,70.6,30.00,SW,215,2.0,2.0,79,0.00,,---,0.00,VWS V14.01,2013-08-27 01:34:00,
2013-08-26 21:40:00,77.5,70.5,30.00,West,260,2.0,3.3,79,0.00,,---,0.00,VWS V14.01,2013-08-27 01:40:00,
2013-08-26 21:45:00,77.3,70.3,30.00,SW,215,2.0,2.3,79,0.00,,---,0.00,VWS V14.01,2013-08-27 01:45:00,
2013-08-26 21:50:00,77.1,70.1,30.00,West,260,0.0,0.0,79,0.00,,---,0.00,VWS V14.01,2013-08-27 01:50:00,
2013-08-26 21:55:00,76.9,69.9,30.00,SW,215,0.0,0.0,79,0.00,,---,0.00,VWS V14.01,2013-08-27 01:55:00,
2013-08-26 22:00:00,76.9,69.9,30.00,SW,215,2.3,2.3,79,0.00,,---,0.00,VWS V14.01,2013-08-27 02:00:00,
2013-08-26 22:05:00,76.8,69.8,30.00,SW,215,1.7,1.7,79,0.00,,---,0.00,VWS V14.01,2013-08-27 02:05:00,
2013-08-26 22:10:00,76.6,69.6,30.00,SW,215,1.7,1.7,79,0.00,,---,0.00,VWS V14.01,2013-08-27 02:10:00,
2013-08-26 22:15:00,76.4,69.4,30.00,SW,215,1.3,3.0,79,0.00,,---,0.00,VWS V14.01,2013-08-27 02:15:00,
2013-08-26 22:20:00,76.4,69.4,30.00,SW,215,3.3,3.3,79,0.00,,---,0.00,VWS V14.01,2013-08-27 02:20:00,
2013-08-26 22:25:00,76.2,69.6,30.00,WSW,238,1.3,2.3,80,0.00,,---,0.00,VWS V14.01,2013-08-27 02:25:00,
2013-08-26 22:30:00,76.4,69.4,30.00,SW,215,1.3,4.0,79,0.00,,---,0.00,VWS V14.01,2013-08-27 02:30:00,
2013-08-26 22:35:00,76.2,69.6,30.00,SW,215,4.0,4.0,80,0.00,,---,0.00,VWS V14.01,2013-08-27 02:35:00,
2013-08-26 22:40:00,76.0,69.4,30.00,SW,215,3.0,3.0,80,0.00,,---,0.00,VWS V14.01,2013-08-27 02:40:00,
2013-08-26 22:45:00,76.2,69.6,30.00,SW,215,1.7,2.3,80,0.00,,---,0.00,VWS V14.01,2013-08-27 02:45:00,
2013-08-26 22:50:00,76.2,69.6,30.00,West,260,4.3,4.3,80,0.00,,---,0.00,VWS V14.01,2013-08-27 02:50:00,
2013-08-26 22:55:00,76.2,69.6,30.00,ENE,58,1.7,1.7,80,0.00,,---,0.00,VWS V14.01,2013-08-27 02:55:00,
2013-08-26 23:00:00,76.0,69.4,30.00,SW,215,1.3,1.3,80,0.00,,---,0.00,VWS V14.01,2013-08-27 03:00:00,
2013-08-26 23:05:00,75.9,69.2,30.00,SW,215,3.3,3.3,80,0.00,,---,0.00,VWS V14.01,2013-08-27 03:05:00,
2013-08-26 23:10:00,75.7,69.1,30.00,SW,215,0.0,0.0,80,0.00,,---,0.00,VWS V14.01,2013-08-27 03:10:00,
2013-08-26 23:15:00,75.5,68.9,30.00,SW,215,3.3,3.3,80,0.00,,---,0.00,VWS V14.01,2013-08-27 03:15:00,
2013-08-26 23:20:00,75.9,69.2,30.00,West,260,0.0,0.0,80,0.00,,---,0.00,VWS V14.01,2013-08-27 03:20:00,
2013-08-26 23:25:00,75.7,69.4,30.00,WNW,282,1.3,2.0,81,0.00,,---,0.00,VWS V14.01,2013-08-27 03:25:00,
2013-08-26 23:30:00,75.9,69.6,30.00,West,260,0.0,4.0,81,0.00,,---,0.00,VWS V14.01,2013-08-27 03:30:00,
2013-08-26 23:35:00,75.7,69.4,30.00,NW,305,5.0,5.0,81,0.00,,---,0.00,VWS V14.01,2013-08-27 03:35:00,
2013-08-26 23:40:00,76.0,69.8,29.97,West,260,2.3,2.3,81,0.00,,---,0.00,VWS V14.01,2013-08-27 03:40:00,
2013-08-26 23:45:00,76.6,70.3,29.97,SW,215,2.0,3.0,81,0.00,,---,0.00,VWS V14.01,2013-08-27 03:45:00,
2013-08-26 23:50:00,76.6,70.3,29.97,West,260,1.7,5.0,81,0.00,,---,0.00,VWS V14.01,2013-08-27 03:50:00,
2013-08-26 23:55:00,76.6,69.9,29.97,North,350,3.3,3.6,80,0.00,,---,0.00,VWS V14.01,2013-08-27 03:55:00,